Accueil
METAR-TAF:

METAR-TAF

Aéroports :

Aéroport international d'Ivato

Tananarive, Madagascar

latitude: 18-48S, longitude: 047-29E, altitude: 1279 m

Observation

Le bulletin a été fait il y a 17 minutes, à 18:00 UTC
Vent 3 kt de est/nord-est
Température 11°C
Humidité 87%
Pression 1027 hPa
Visibilité 10 km ou plus
Quelques nuages à une hauteur de 1700 ft

METAR: FMMI 201800Z 07003KT 9999 FEW017 11/09 Q1027 NOSIG

Heure: 21:17 (18:17 UTC)

Prévision

Le bulletin a été fait il y a 1 heure et 17 minutes, à 17:00 UTC
Prévision valable du 20 à 18 UTC au 21 à 24 UTC
Vent 8 kt de est/sud-est
Visibilité 10 km ou plus
Quelques nuages à une hauteur de 1700 ft
Nuages épars à une hauteur de 2000 ft
Probabilité 30%
du 21 à 02 UTC au 21 à 05 UTC
Visibilité: 4000 m
brume,

TAF: FMMI 201700Z 2018/2124 12008KT 9999 FEW017 SCT020 PROB30 2102/2105 4000 BR

Observations et prévisions météorologiques de plus de 4000 aéroports (messages METAR et TAF).

Les stations disponibles sont représentées par des disques jaunes et rouges sur la carte.

Passer la souris dessus pour voir le nom de la station.

Cliquer dessus pour voir les observations et prévisions météorologiques.

Pour changer de carte: cliquez sur les boutons verts avec une croix noire pour zoomer, sur le bouton vert avec un tiret pour effectuer un zoom arrière, ou sur les flèches vertes pour les cartes adjacentes.


METAR-TAF: